O Brien, Florida
Current Conditions -  °F | °C
As of 8:35 PM on Saturday 25 Oct 2014 (Local Time) from K24J Reporting Station
Clear Clear  
Wind Chill: 59°   Ceiling: Unl
Heat Index: 59°   Visibility: 2mi
Dew Point: 55°   Wind: 0mph
Humidity: 88%   Direction: NA
Pressure: 30.02"   Gusts: NA
Location:  30.0381°N, 82.9437°W
Report Text: K24J 260035Z AUTO 00000KT 2SM CLR 15/13 A3002 RMK AO1
Loading
Personal Weather Stations






























Interactive Weather Map
Tropical Storm Tracking
New forecast layout! Learn more

10-Day Weather Forecast

Advertisements
Track Severe Weather on mobile